createdAt,value
2024-01-22T00:02:53.350Z,37.60
2024-01-22T00:07:53.209Z,39.60
2024-01-22T00:12:53.345Z,41.70
2024-01-22T00:17:53.312Z,37.50
2024-01-22T00:22:53.169Z,39.20
2024-01-22T00:27:53.306Z,37.10
2024-01-22T00:32:53.326Z,42.20
2024-01-22T00:37:53.154Z,37.30
2024-01-22T00:42:59.774Z,35.60
2024-01-22T00:47:53.225Z,37.30
2024-01-22T00:52:53.307Z,39.70
2024-01-22T00:57:54.915Z,38.10
2024-01-22T01:02:53.143Z,37.10
2024-01-22T01:07:53.174Z,38.20
2024-01-22T01:12:53.336Z,35.60
2024-01-22T01:17:53.279Z,36.60
2024-01-22T01:22:53.352Z,38.30
2024-01-22T01:27:54.955Z,37.90
2024-01-22T01:32:53.547Z,38.40
2024-01-22T01:37:53.089Z,34.90
2024-01-22T01:42:55.082Z,35.30
2024-01-22T01:47:53.537Z,35.70
2024-01-22T01:52:54.192Z,37.10
2024-01-22T01:58:00.528Z,37.60
2024-01-22T02:02:53.368Z,35.20
2024-01-22T02:07:53.115Z,31.70
2024-01-22T02:12:54.688Z,34.60
2024-01-22T02:17:54.493Z,33.70
2024-01-22T02:22:54.217Z,34.40
2024-01-22T02:27:54.914Z,32.10
2024-01-22T02:32:53.280Z,31.40
2024-01-22T02:37:53.076Z,31.90
2024-01-22T02:42:53.291Z,31.10
2024-01-22T02:47:55.339Z,33.80
2024-01-22T02:52:53.021Z,34.90
2024-01-22T02:57:53.256Z,30.40
2024-01-22T03:02:53.216Z,30.80
2024-01-22T03:07:53.059Z,28.40
2024-01-22T03:12:53.045Z,30.30
2024-01-22T03:17:53.196Z,29.50
2024-01-22T03:22:52.987Z,30.40
2024-01-22T03:27:53.407Z,30.80
2024-01-22T03:32:53.477Z,28.50
2024-01-22T03:37:53.021Z,27.40
2024-01-22T03:42:53.048Z,28.00
2024-01-22T03:47:53.296Z,23.40
2024-01-22T03:52:53.038Z,26.70
2024-01-22T03:57:52.989Z,25.70
2024-01-22T04:02:55.123Z,29.10
2024-01-22T04:07:52.930Z,25.90
2024-01-22T04:12:54.905Z,25.70
2024-01-22T04:17:55.140Z,23.70
2024-01-22T04:22:52.970Z,27.00
2024-01-22T04:27:55.149Z,23.60
2024-01-22T04:32:54.932Z,23.70
2024-01-22T04:37:53.407Z,24.40
2024-01-22T04:42:52.911Z,25.10
2024-01-22T04:47:53.071Z,22.30
2024-01-22T04:52:52.934Z,22.60
2024-01-22T04:57:52.909Z,24.20
2024-01-22T05:02:54.995Z,25.50
2024-01-22T05:07:52.898Z,27.50
2024-01-22T05:12:53.126Z,25.30
2024-01-22T05:17:53.159Z,25.10
2024-01-22T05:22:52.915Z,24.80
2024-01-22T05:27:53.052Z,28.00
2024-01-22T05:32:53.766Z,26.70
2024-01-22T05:37:52.842Z,26.30
2024-01-22T05:42:52.972Z,28.30
2024-01-22T05:47:54.703Z,23.40
2024-01-22T05:52:53.354Z,26.40
2024-01-22T05:57:52.863Z,29.10
2024-01-22T06:02:54.492Z,24.80
2024-01-22T06:07:52.844Z,26.30
2024-01-22T06:12:53.287Z,25.40
2024-01-22T06:17:55.139Z,24.40
2024-01-22T06:22:52.898Z,26.80
2024-01-22T06:27:52.850Z,24.10
2024-01-22T06:32:54.994Z,27.40
2024-01-22T06:37:52.876Z,27.40
2024-01-22T06:42:52.879Z,24.10
2024-01-22T06:47:53.179Z,26.30
2024-01-22T06:52:52.937Z,23.40
2024-01-22T06:57:52.834Z,24.60
2024-01-22T07:02:53.102Z,23.00
2024-01-22T07:07:53.387Z,22.90
2024-01-22T07:12:52.749Z,22.80
2024-01-22T07:17:54.743Z,21.20
2024-01-22T07:22:54.030Z,19.50
2024-01-22T07:27:52.808Z,24.00
2024-01-22T07:32:54.847Z,18.80
2024-01-22T07:37:52.763Z,21.60
2024-01-22T07:42:52.865Z,18.30
2024-01-22T07:47:54.742Z,18.40
2024-01-22T07:52:52.749Z,18.80
2024-01-22T07:57:52.818Z,18.40
2024-01-22T08:02:52.954Z,17.80
2024-01-22T08:07:52.719Z,17.00
2024-01-22T08:12:52.780Z,17.80
2024-01-22T08:17:52.966Z,18.80
2024-01-22T08:22:52.914Z,18.20
2024-01-22T08:27:53.230Z,20.50
2024-01-22T08:32:54.222Z,18.80
2024-01-22T08:37:52.820Z,21.90
2024-01-22T08:42:54.434Z,20.10
2024-01-22T08:47:54.915Z,18.00
2024-01-22T08:52:53.193Z,21.80
2024-01-22T08:57:54.301Z,19.00
2024-01-22T09:02:53.078Z,17.00
2024-01-22T09:07:53.842Z,21.70
2024-01-22T09:12:52.904Z,22.90
2024-01-22T09:17:55.271Z,26.60
2024-01-22T09:22:53.020Z,21.90
2024-01-22T09:27:53.135Z,21.60
2024-01-22T09:32:58.023Z,27.50
2024-01-22T09:37:53.090Z,26.40
2024-01-22T09:42:53.230Z,23.00
2024-01-22T09:47:53.026Z,20.40
2024-01-22T09:52:53.175Z,21.20
2024-01-22T09:57:54.076Z,22.40
2024-01-22T10:02:53.840Z,18.60
2024-01-22T10:07:52.973Z,16.40
2024-01-22T10:12:56.637Z,15.70
2024-01-22T10:17:53.240Z,19.30
2024-01-22T10:23:00.072Z,20.60
2024-01-22T10:28:07.819Z,19.20
2024-01-22T10:33:12.312Z,20.70
2024-01-22T10:38:04.792Z,21.00
2024-01-22T10:42:54.438Z,18.40
2024-01-22T10:47:57.982Z,18.40
2024-01-22T10:52:54.148Z,21.10
2024-01-22T10:57:56.701Z,23.10
2024-01-22T11:02:56.563Z,15.30
2024-01-22T11:07:53.958Z,17.80
2024-01-22T11:12:55.032Z,17.30
2024-01-22T11:17:52.775Z,25.60
2024-01-22T11:23:00.187Z,17.70
2024-01-22T11:28:00.900Z,21.00
2024-01-22T11:32:52.713Z,16.80
2024-01-22T11:37:52.604Z,16.70
2024-01-22T11:42:54.653Z,17.10
2024-01-22T11:47:52.644Z,19.60
2024-01-22T11:52:59.642Z,19.20
2024-01-22T11:57:52.644Z,16.20
2024-01-22T12:02:57.203Z,17.70
2024-01-22T12:07:52.604Z,15.40
2024-01-22T12:12:54.632Z,17.80
2024-01-22T12:17:53.638Z,9.20
2024-01-22T12:22:56.680Z,13.60
2024-01-22T12:28:03.066Z,12.00
2024-01-22T12:32:53.457Z,15.60
2024-01-22T12:37:52.602Z,13.90
2024-01-22T12:42:59.135Z,13.70
2024-01-22T12:47:52.729Z,17.60
2024-01-22T12:52:52.545Z,10.90
2024-01-22T12:57:52.792Z,12.10
2024-01-22T13:02:52.586Z,14.10
2024-01-22T13:07:52.553Z,14.30
2024-01-22T13:11:23.576Z,14.00
2024-01-22T13:12:52.470Z,14.00
2024-01-22T13:17:52.815Z,14.70
2024-01-22T13:22:55.439Z,13.60
2024-01-22T13:27:54.417Z,13.70
2024-01-22T13:32:55.377Z,15.40
2024-01-22T13:37:52.608Z,20.80
2024-01-22T13:43:00.319Z,14.80
2024-01-22T13:47:53.658Z,14.80
2024-01-22T13:52:53.871Z,12.20
2024-01-22T13:57:54.044Z,12.10
2024-01-22T14:02:52.468Z,13.20
2024-01-22T14:07:54.682Z,14.40
2024-01-22T14:12:52.404Z,12.60
2024-01-22T14:17:52.903Z,12.70
2024-01-22T14:22:52.713Z,12.90
2024-01-22T14:27:52.487Z,16.60
2024-01-22T14:32:52.698Z,11.30
2024-01-22T14:37:52.687Z,10.20
2024-01-22T14:42:52.843Z,12.10
2024-01-22T14:47:54.498Z,14.60
2024-01-22T14:52:52.936Z,12.70
2024-01-22T14:57:52.570Z,17.70
2024-01-22T15:02:52.425Z,17.50
2024-01-22T15:07:54.419Z,13.30
2024-01-22T15:12:52.596Z,14.80
2024-01-22T15:17:53.515Z,12.80
2024-01-22T15:22:53.777Z,19.00
2024-01-22T15:27:52.562Z,29.70
2024-01-22T15:32:53.751Z,16.70
2024-01-22T15:37:52.657Z,16.60
2024-01-22T15:42:52.436Z,14.70
2024-01-22T15:47:52.445Z,18.20
2024-01-22T15:52:55.846Z,15.90
2024-01-22T15:57:52.386Z,15.40
2024-01-22T16:02:52.519Z,18.10
2024-01-22T16:07:52.394Z,21.90
2024-01-22T16:12:52.443Z,20.20
2024-01-22T16:17:52.683Z,17.10
2024-01-22T16:22:54.414Z,16.50
2024-01-22T16:27:53.311Z,15.50
2024-01-22T16:32:52.620Z,15.10
2024-01-22T16:37:52.451Z,14.80
2024-01-22T16:42:52.337Z,14.90
2024-01-22T16:47:52.359Z,14.00
2024-01-22T16:52:53.942Z,14.60
2024-01-22T16:57:52.296Z,16.00
2024-01-22T17:02:52.626Z,17.00
2024-01-22T17:07:54.325Z,13.80
2024-01-22T17:12:52.282Z,13.90
2024-01-22T17:17:53.275Z,13.20
2024-01-22T17:22:52.525Z,13.80
2024-01-22T17:27:52.875Z,13.80
2024-01-22T17:32:52.424Z,13.30
2024-01-22T17:37:54.710Z,14.90
2024-01-22T17:42:52.247Z,11.40
2024-01-22T17:47:52.387Z,13.70
2024-01-22T17:52:52.607Z,13.20
2024-01-22T17:57:52.263Z,14.40
2024-01-22T18:02:52.343Z,14.00
2024-01-22T18:07:54.613Z,14.20
2024-01-22T18:12:52.394Z,12.20
2024-01-22T18:17:52.503Z,16.00
2024-01-22T18:22:52.881Z,13.60
2024-01-22T18:27:52.288Z,15.60
2024-01-22T18:32:52.301Z,13.10
2024-01-22T18:37:54.539Z,13.40
2024-01-22T18:42:52.426Z,14.00
2024-01-22T18:47:52.486Z,14.70
2024-01-22T18:52:55.367Z,13.50
2024-01-22T18:57:52.170Z,15.80
2024-01-22T19:02:54.785Z,13.40
2024-01-22T19:08:04.167Z,13.30
2024-01-22T19:12:52.139Z,14.50
2024-01-22T19:17:52.321Z,14.00
2024-01-22T19:22:55.979Z,15.60
2024-01-22T19:27:52.248Z,10.70
2024-01-22T19:32:52.414Z,15.80
2024-01-22T19:37:54.090Z,15.20
2024-01-22T19:42:52.337Z,14.20
2024-01-22T19:47:52.703Z,11.40
2024-01-22T19:52:52.539Z,12.00
2024-01-22T19:57:52.377Z,12.40
2024-01-22T20:02:52.310Z,14.10
2024-01-22T20:07:55.505Z,12.80
2024-01-22T20:12:52.161Z,11.50
2024-01-22T20:17:52.536Z,10.90
2024-01-22T20:22:56.189Z,13.30
2024-01-22T20:27:52.212Z,12.90
2024-01-22T20:32:52.313Z,12.10
2024-01-22T20:37:54.892Z,11.70
2024-01-22T20:42:52.241Z,14.00
2024-01-22T20:47:54.211Z,11.00
2024-01-22T20:52:53.842Z,14.00
2024-01-22T20:57:52.103Z,11.90
2024-01-22T21:02:52.408Z,14.50
2024-01-22T21:07:52.377Z,13.40
2024-01-22T21:12:53.453Z,10.50
2024-01-22T21:17:52.146Z,13.00
2024-01-22T21:22:52.574Z,10.80
2024-01-22T21:27:52.040Z,12.00
2024-01-22T21:32:52.248Z,11.30
2024-01-22T21:37:52.349Z,12.60
2024-01-22T21:42:52.230Z,12.10
2024-01-22T21:47:52.406Z,11.60
2024-01-22T21:52:52.394Z,11.00
2024-01-22T21:57:52.039Z,12.20
2024-01-22T22:02:53.073Z,12.20
2024-01-22T22:07:52.073Z,15.40
2024-01-22T22:12:52.126Z,15.70
2024-01-22T22:17:52.286Z,15.40
2024-01-22T22:22:52.602Z,14.80
2024-01-22T22:27:52.077Z,16.20
2024-01-22T22:32:57.447Z,16.20
2024-01-22T22:37:55.041Z,13.90
2024-01-22T22:42:51.985Z,17.00
2024-01-22T22:47:52.168Z,16.40
2024-01-22T22:52:52.292Z,18.00
2024-01-22T22:57:53.644Z,20.80
2024-01-22T23:02:52.172Z,23.00
2024-01-22T23:07:52.632Z,20.80
2024-01-22T23:12:51.975Z,25.30
2024-01-22T23:17:52.052Z,24.40
2024-01-22T23:22:52.386Z,19.20
2024-01-22T23:27:51.957Z,19.80
2024-01-22T23:32:52.273Z,22.20
2024-01-22T23:37:58.650Z,17.50
2024-01-22T23:42:52.148Z,19.90
2024-01-22T23:47:53.072Z,16.90
2024-01-22T23:52:52.221Z,19.70
2024-01-22T23:57:52.014Z,17.80
